Time;durP1;ratioP1;P1;durP2;ratioP2;P2;SDS_P1;SDS_P2;PMS_P1;PMS_P2;Temp;Humidity;BMP_temperature;BMP_pressure;BME280_temperature;BME280_humidity;BME280_pressure;Samples;Min_cycle;Max_cycle;Signal;HPM_P1;HPM_P2
2021/11/03 00:00:56;;;;;;;24.48;14.18;;;;;;;7.08;73.08;98863.44;5027980;28;20054;-85
2021/11/03 00:03:24;;;;;;;23.70;14.27;;;;;;;7.03;72.58;98857.25;5028550;28;20054;-85
2021/11/03 00:05:52;;;;;;;25.83;14.07;;;;;;;6.92;72.38;98859.56;5027046;28;20064;-85
2021/11/03 00:08:23;;;;;;;24.75;14.65;;;;;;;6.87;72.68;98857.78;5027391;28;20046;-85
2021/11/03 00:10:53;;;;;;;28.33;16.02;;;;;;;6.85;73.10;98862.03;5028188;28;20046;-86
2021/11/03 00:13:23;;;;;;;30.17;14.82;;;;;;;6.83;72.57;98867.09;5027701;28;20061;-87
2021/11/03 00:15:51;;;;;;;22.02;13.43;;;;;;;6.75;72.89;98863.19;5028680;28;20054;-86
2021/11/03 00:18:19;;;;;;;24.67;14.18;;;;;;;6.73;73.50;98864.66;5026637;28;20053;-86
2021/11/03 00:20:46;;;;;;;24.25;13.90;;;;;;;6.68;72.89;98860.13;5029992;28;20057;-84
2021/11/03 00:23:14;;;;;;;25.48;15.05;;;;;;;6.66;73.07;98865.16;5028648;28;20058;-84
2021/11/03 00:25:45;;;;;;;25.90;13.68;;;;;;;6.61;73.06;98866.13;5028640;28;20053;-84
2021/11/03 00:28:15;;;;;;;25.60;14.50;;;;;;;6.60;72.88;98864.50;5029266;28;20054;-84
2021/11/03 00:30:43;;;;;;;;;;;;;;;6.49;73.10;98872.34;5030385;28;20056;-84
2021/11/03 00:33:10;;;;;;;25.08;13.73;;;;;;;6.42;73.35;98862.91;5029278;28;19928;-84
2021/11/03 00:35:37;;;;;;;22.83;13.32;;;;;;;6.43;72.85;98859.00;5028654;28;20054;-85
2021/11/03 00:38:05;;;;;;;27.95;14.52;;;;;;;6.42;72.42;98852.63;5029300;28;20054;-86
2021/11/03 00:40:32;;;;;;;24.48;13.85;;;;;;;6.37;73.46;98860.31;5028469;28;20062;-84
2021/11/03 00:43:00;;;;;;;26.30;13.52;;;;;;;6.36;72.59;98853.94;5030093;28;20052;-84
2021/11/03 00:45:29;;;;;;;23.98;14.10;;;;;;;6.34;72.46;98856.25;5029702;28;20056;-84
2021/11/03 00:47:56;;;;;;;30.65;16.02;;;;;;;6.27;73.39;98848.44;5029182;28;20054;-84
2021/11/03 00:50:25;;;;;;;28.02;15.07;;;;;;;6.26;73.12;98846.81;5029237;28;20061;-85
2021/11/03 00:52:53;;;;;;;27.75;14.30;;;;;;;6.25;73.38;98847.94;5029712;28;20430;-84
2021/11/03 00:55:21;;;;;;;28.08;15.57;;;;;;;6.16;73.85;98852.66;5029052;28;20068;-85
2021/11/03 00:57:49;;;;;;;27.05;14.88;;;;;;;6.16;73.10;98849.91;5028259;28;20483;-84
2021/11/03 01:00:19;;;;;;;27.30;14.82;;;;;;;6.14;73.64;98852.19;5028039;28;20060;-84
2021/11/03 01:02:48;;;;;;;23.67;14.02;;;;;;;6.15;73.73;98841.94;5029486;28;20064;-84
2021/11/03 01:05:19;;;;;;;25.23;13.60;;;;;;;6.08;74.23;98839.66;5029286;28;20247;-84
2021/11/03 01:07:47;;;;;;;26.67;14.70;;;;;;;6.04;74.18;98842.25;5029417;28;20457;-84
2021/11/03 01:10:15;;;;;;;22.65;13.32;;;;;;;6.06;73.63;98834.44;5029667;28;20037;-84
2021/11/03 01:12:43;;;;;;;26.40;13.65;;;;;;;6.06;73.55;98839.16;5028392;28;20049;-84
2021/11/03 01:15:14;;;;;;;24.33;13.77;;;;;;;6.07;73.31;98830.56;5027310;28;20058;-84
2021/11/03 01:17:41;;;;;;;24.35;13.68;;;;;;;6.04;73.36;98831.19;5027836;28;20060;-84
2021/11/03 01:20:13;;;;;;;27.08;14.25;;;;;;;6.04;73.20;98824.84;5028247;28;20050;-84
2021/11/03 01:22:41;;;;;;;23.45;14.23;;;;;;;6.00;73.52;98832.97;5030245;28;20045;-84
2021/11/03 01:25:12;;;;;;;26.42;15.32;;;;;;;5.98;73.65;98826.97;5028195;28;20058;-85
2021/11/03 01:27:39;;;;;;;26.40;15.30;;;;;;;5.96;73.55;98828.44;5027984;28;20052;-84
2021/11/03 01:30:09;;;;;;;26.48;15.13;;;;;;;5.94;73.60;98825.13;5028106;28;20053;-84
2021/11/03 01:32:36;;;;;;;24.42;14.68;;;;;;;5.86;73.88;98818.50;5027859;28;20053;-84
2021/11/03 01:35:05;;;;;;;24.90;14.90;;;;;;;5.86;73.47;98824.03;5029121;28;20058;-84
2021/11/03 01:37:34;;;;;;;23.35;13.27;;;;;;;5.77;73.75;98835.03;5028944;28;20058;-84
2021/11/03 01:40:01;;;;;;;22.80;12.23;;;;;;;5.79;73.58;98834.72;5029351;28;20054;-84
2021/11/03 01:42:29;;;;;;;27.67;13.73;;;;;;;5.80;74.10;98830.84;5028588;28;20054;-84
2021/11/03 01:44:56;;;;;;;21.73;12.52;;;;;;;5.77;74.10;98837.00;5027073;28;20053;-84
2021/11/03 01:47:46;;;;;;;21.83;13.35;;;;;;;5.71;73.91;98841.84;5027112;28;20058;-84
2021/11/03 01:50:21;;;;;;;20.52;12.15;;;;;;;5.73;73.47;98838.75;5027584;28;20057;-84
2021/11/03 01:52:56;;;;;;;24.65;13.55;;;;;;;5.72;73.23;98843.50;5008260;28;20061;-84
2021/11/03 01:55:25;;;;;;;23.15;13.13;;;;;;;5.73;73.08;98844.28;5007183;28;20058;-85
2021/11/03 01:57:56;;;;;;;23.90;14.45;;;;;;;5.69;73.39;98844.94;5007080;28;20062;-85
2021/11/03 02:00:29;;;;;;;23.98;14.02;;;;;;;5.66;73.53;98842.81;5007666;28;20054;-84
2021/11/03 02:03:02;;;;;;;25.13;13.57;;;;;;;5.57;73.68;98835.66;5006613;28;20054;-85
2021/11/03 02:05:30;;;;;;;23.30;13.45;;;;;;;5.61;73.31;98845.75;5006969;28;20061;-84
2021/11/03 02:08:02;;;;;;;22.02;12.70;;;;;;;5.61;73.00;98836.66;5006370;28;20050;-84
2021/11/03 02:10:30;;;;;;;20.25;12.75;;;;;;;5.56;73.39;98832.06;5006148;28;20487;-84
2021/11/03 02:12:58;;;;;;;20.15;11.82;;;;;;;5.57;73.18;98832.91;5005873;28;20062;-84
2021/11/03 02:15:26;;;;;;;21.58;11.85;;;;;;;5.52;72.87;98833.84;5005728;28;20066;-84
2021/11/03 02:17:54;;;;;;;21.65;12.15;;;;;;;5.50;72.83;98833.34;5006126;28;20073;-84
2021/11/03 02:20:25;;;;;;;19.02;12.10;;;;;;;5.42;73.21;98820.38;5005907;28;20054;-84
2021/11/03 02:23:06;;;;;;;23.73;12.93;;;;;;;5.42;73.24;98815.66;5005802;28;20077;-85
2021/11/03 02:25:43;;;;;;;19.67;12.43;;;;;;;5.46;73.78;98815.81;5009987;28;20050;-85
2021/11/03 02:28:14;;;;;;;25.45;13.63;;;;;;;5.43;73.86;98811.75;5005472;28;20058;-85
2021/11/03 02:30:41;;;;;;;22.70;12.55;;;;;;;5.48;73.31;98805.25;5005466;28;20053;-85
2021/11/03 02:33:13;;;;;;;25.92;13.75;;;;;;;5.40;73.77;98800.53;5005164;28;20054;-84
2021/11/03 02:35:41;;;;;;;23.42;13.20;;;;;;;5.42;73.68;98796.31;5005645;28;20054;-85
2021/11/03 02:38:08;;;;;;;22.27;12.25;;;;;;;5.46;73.41;98796.50;5005241;28;20054;-85
2021/11/03 02:40:46;;;;;;;18.02;10.90;;;;;;;5.45;73.49;98801.19;5009869;28;20054;-85
2021/11/03 02:43:21;;;;;;;19.90;11.25;;;;;;;5.42;73.44;98803.78;5005943;28;20065;-85
2021/11/03 03:03:05;;;;;;;19.30;10.73;;;;;;;5.39;74.23;98758.28;5028719;23;20060;-51
2021/11/03 03:05:32;;;;;;;20.70;11.73;;;;;;;5.43;74.01;98759.28;5051771;28;20060;-53
2021/11/03 03:08:00;;;;;;;19.95;11.10;;;;;;;5.43;73.73;98755.72;5052107;28;20407;-55
2021/11/03 03:10:27;;;;;;;19.33;11.65;;;;;;;5.40;74.09;98762.69;5053903;28;20073;-52
2021/11/03 03:12:54;;;;;;;19.52;11.10;;;;;;;5.42;73.34;98765.13;5055438;28;20053;-53
2021/11/03 03:15:22;;;;;;;23.00;11.82;;;;;;;5.44;73.26;98769.19;5055606;28;20063;-51
2021/11/03 03:17:49;;;;;;;18.65;11.00;;;;;;;5.43;73.39;98772.28;5055611;28;20394;-52
2021/11/03 03:20:18;;;;;;;19.95;11.15;;;;;;;5.44;72.81;98774.72;5055712;28;20053;-52
2021/11/03 03:22:45;;;;;;;21.50;11.57;;;;;;;5.41;72.86;98774.53;5055096;28;20049;-52
2021/11/03 03:25:12;;;;;;;19.27;10.95;;;;;;;5.37;72.74;98774.38;5055147;28;20064;-52
2021/11/03 03:27:40;;;;;;;19.88;10.68;;;;;;;5.35;72.77;98773.06;5055432;28;20053;-52
2021/11/03 03:30:07;;;;;;;17.33;10.15;;;;;;;5.29;72.71;98777.91;5055561;28;20078;-52
2021/11/03 03:32:35;;;;;;;20.10;10.63;;;;;;;5.22;73.11;98770.13;5054651;28;20041;-54
2021/11/03 03:35:02;;;;;;;18.58;10.32;;;;;;;5.24;72.72;98770.59;5054522;28;20410;-51
2021/11/03 03:37:31;;;;;;;19.13;10.98;;;;;;;5.15;72.67;98771.72;5055449;28;20384;-52
2021/11/03 03:39:58;;;;;;;19.92;11.63;;;;;;;5.14;72.18;98773.66;5054867;28;20053;-52
2021/11/03 03:42:25;;;;;;;19.00;11.10;;;;;;;5.10;72.52;98775.44;5055327;28;20049;-54
2021/11/03 03:44:53;;;;;;;21.02;12.63;;;;;;;5.08;73.63;98772.19;5054691;28;20422;-52
2021/11/03 03:47:20;;;;;;;20.95;11.18;;;;;;;4.96;73.14;98770.03;5054469;28;20057;-52
2021/11/03 03:49:47;;;;;;;18.48;10.88;;;;;;;5.02;72.98;98773.47;5048174;28;20103;-52
2021/11/03 03:52:15;;;;;;;17.35;10.68;;;;;;;5.03;72.73;98786.94;5018848;28;20053;-53
2021/11/03 03:54:44;;;;;;;19.25;11.90;;;;;;;5.02;72.58;98785.31;5034689;28;20053;-53
2021/11/03 03:57:11;;;;;;;17.23;10.67;;;;;;;4.95;72.39;98790.47;5034650;28;20057;-52
2021/11/03 03:59:38;;;;;;;19.75;11.23;;;;;;;4.95;72.68;98789.66;5034793;28;20053;-53
2021/11/03 04:02:06;;;;;;;18.80;10.32;;;;;;;4.91;72.47;98803.28;5035113;28;20459;-54
2021/11/03 04:04:34;;;;;;;19.60;10.85;;;;;;;4.88;73.22;98806.69;5034670;28;20046;-54
2021/11/03 04:07:01;;;;;;;20.50;11.10;;;;;;;4.89;73.17;98811.06;5034729;28;20057;-54
2021/11/03 04:09:30;;;;;;;18.65;10.82;;;;;;;4.88;73.30;98815.75;5034719;28;20064;-54
2021/11/03 04:11:58;;;;;;;19.67;10.93;;;;;;;4.87;73.20;98813.31;5035402;28;20060;-53
2021/11/03 04:14:26;;;;;;;18.35;10.45;;;;;;;4.92;73.43;98818.72;5034761;28;20057;-53
2021/11/03 04:16:54;;;;;;;19.23;10.43;;;;;;;4.95;73.20;98823.59;5034996;28;20057;-53
2021/11/03 04:19:22;;;;;;;19.52;11.40;;;;;;;4.96;73.49;98824.41;5035054;28;20049;-55
2021/11/03 04:21:49;;;;;;;19.77;11.02;;;;;;;4.97;73.53;98820.50;5034441;28;20045;-56
2021/11/03 04:24:16;;;;;;;17.55;10.85;;;;;;;4.98;73.54;98809.16;5034604;28;20472;-52
2021/11/03 04:26:47;;;;;;;17.63;11.15;;;;;;;5.06;73.43;98807.56;5034199;28;20056;-52
2021/11/03 04:29:16;;;;;;;15.73;9.27;;;;;;;5.06;73.76;98810.31;5034749;28;20397;-53
2021/11/03 04:31:44;;;;;;;17.13;10.15;;;;;;;5.07;73.74;98815.53;5034418;28;20420;-55
2021/11/03 04:34:11;;;;;;;20.80;10.73;;;;;;;5.06;73.76;98818.59;5034412;28;20054;-52
2021/11/03 04:36:39;;;;;;;21.15;11.65;;;;;;;5.06;73.52;98821.34;5033967;28;20057;-52
2021/11/03 04:39:08;;;;;;;20.80;11.85;;;;;;;5.08;74.03;98827.38;5033935;28;20057;-54
2021/11/03 04:41:35;;;;;;;21.10;12.03;;;;;;;5.05;73.61;98828.03;5034250;28;20050;-52
2021/11/03 04:44:03;;;;;;;20.38;12.07;;;;;;;5.09;73.71;98832.56;5033930;28;20049;-52
2021/11/03 04:46:32;;;;;;;20.27;11.68;;;;;;;5.09;74.11;98817.97;5034039;28;20053;-54
2021/11/03 04:48:59;;;;;;;19.05;11.52;;;;;;;5.18;73.88;98829.03;5033958;28;20061;-53
2021/11/03 04:51:27;;;;;;;19.90;11.90;;;;;;;5.22;73.74;98827.28;5033905;28;20049;-52
2021/11/03 04:53:54;;;;;;;21.00;11.73;;;;;;;5.16;73.53;98840.38;5033732;28;20054;-52
2021/11/03 04:56:24;;;;;;;20.15;11.65;;;;;;;5.19;73.60;98844.47;5033792;28;20054;-52
2021/11/03 04:58:53;;;;;;;20.85;11.75;;;;;;;5.19;73.65;98845.28;5033075;28;20057;-53
2021/11/03 05:01:24;;;;;;;17.50;10.38;;;;;;;5.24;73.16;98836.84;5033630;28;20504;-54
2021/11/03 05:03:54;;;;;;;19.00;10.68;;;;;;;5.25;73.34;98827.44;5033125;28;20058;-52
2021/11/03 05:06:27;;;;;;;20.20;10.93;;;;;;;5.29;73.21;98825.69;5033659;28;20064;-53
2021/11/03 05:08:56;;;;;;;15.82;10.10;;;;;;;5.28;73.33;98828.75;5034075;28;20056;-52
2021/11/03 05:11:24;;;;;;;17.17;10.55;;;;;;;5.29;73.59;98822.91;5033870;28;20464;-54
2021/11/03 05:13:51;;;;;;;17.02;10.73;;;;;;;5.33;73.56;98820.31;5033675;28;20041;-54
2021/11/03 05:16:20;;;;;;;20.02;11.65;;;;;;;5.33;73.59;98817.56;5033192;28;20258;-52
2021/11/03 05:18:48;;;;;;;16.00;10.45;;;;;;;5.36;73.62;98816.13;5033339;28;20050;-55
2021/11/03 05:21:17;;;;;;;15.13;9.85;;;;;;;5.33;73.49;98813.97;5033490;28;20057;-53
2021/11/03 05:23:45;;;;;;;17.88;10.63;;;;;;;5.35;72.98;98815.28;5033337;28;20054;-54
2021/11/03 05:26:16;;;;;;;18.42;10.43;;;;;;;5.38;73.36;98814.66;5033469;28;20061;-52
2021/11/03 05:28:43;;;;;;;16.33;10.73;;;;;;;5.40;72.87;98815.16;5033041;28;20049;-54
2021/11/03 05:31:13;;;;;;;16.38;10.32;;;;;;;5.38;73.15;98809.13;5032928;28;20057;-52
2021/11/03 05:33:40;;;;;;;15.32;9.38;;;;;;;5.38;73.05;98808.34;5032610;28;20061;-52
2021/11/03 05:36:08;;;;;;;14.00;9.25;;;;;;;5.42;73.10;98804.59;5032629;28;20056;-54
2021/11/03 05:38:38;;;;;;;15.20;9.13;;;;;;;5.43;72.81;98799.88;5032870;28;20049;-52
2021/11/03 05:41:05;;;;;;;14.10;9.30;;;;;;;5.45;72.75;98805.91;5032826;28;20053;-52
2021/11/03 05:43:32;;;;;;;15.73;9.63;;;;;;;5.46;72.85;98802.03;5032604;28;20054;-52
2021/11/03 05:46:00;;;;;;;17.08;9.85;;;;;;;5.40;73.10;98803.31;5032249;28;20057;-52
2021/11/03 05:48:33;;;;;;;15.98;9.65;;;;;;;5.44;72.51;98801.53;5032860;28;20050;-52
2021/11/03 05:51:01;;;;;;;19.10;10.68;;;;;;;5.48;72.54;98788.69;5031796;28;20052;-52
2021/11/03 05:53:28;;;;;;;17.73;10.85;;;;;;;5.51;72.77;98793.56;5032050;28;20053;-53
2021/11/03 05:55:57;;;;;;;17.73;10.57;;;;;;;5.49;72.71;98787.56;5032877;28;20060;-52
2021/11/03 05:58:25;;;;;;;17.02;10.77;;;;;;;5.39;72.85;98794.19;5032803;28;20068;-54
2021/11/03 06:00:53;;;;;;;19.50;11.75;;;;;;;5.41;72.75;98794.69;5032775;28;20049;-52
2021/11/03 06:03:20;;;;;;;21.55;12.93;;;;;;;5.40;72.42;98795.81;5032556;28;20057;-54
2021/11/03 06:05:47;;;;;;;20.25;11.52;;;;;;;5.45;72.75;98803.94;5032774;28;20487;-52
2021/11/03 06:08:15;;;;;;;17.17;10.80;;;;;;;5.45;72.85;98797.63;5032375;28;20053;-52
2021/11/03 06:10:46;;;;;;;19.48;11.15;;;;;;;5.45;72.74;98797.63;5031089;28;20068;-53
2021/11/03 06:13:15;;;;;;;16.65;11.55;;;;;;;5.45;72.90;98803.94;5027128;28;20061;-55
2021/11/03 06:15:42;;;;;;;18.70;11.52;;;;;;;5.51;72.93;98804.63;5045592;28;20045;-55
2021/11/03 06:18:10;;;;;;;19.60;11.38;;;;;;;5.54;72.62;98800.41;5042559;28;20053;-52
2021/11/03 06:20:37;;;;;;;15.75;10.57;;;;;;;5.58;72.43;98804.94;5032768;28;20053;-53
2021/11/03 06:23:05;;;;;;;22.00;12.35;;;;;;;5.59;72.69;98798.31;5032476;28;20049;-53
2021/11/03 06:25:34;;;;;;;20.13;10.93;;;;;;;5.59;72.61;98803.03;5036648;28;20060;-52
2021/11/03 06:28:02;;;;;;;22.40;12.77;;;;;;;5.60;73.00;98804.63;5042154;28;20052;-53
2021/11/03 06:30:37;;;;;;;18.58;11.20;;;;;;;5.63;73.01;98810.34;5036320;28;20049;-55
2021/11/03 06:33:04;;;;;;;18.05;10.60;;;;;;;5.66;72.35;98809.66;5032123;28;20065;-54
2021/11/03 06:35:35;;;;;;;18.42;11.15;;;;;;;5.65;73.03;98821.06;5031587;28;20053;-52
2021/11/03 06:38:03;;;;;;;20.35;11.98;;;;;;;5.59;72.40;98819.59;5042273;28;20407;-52
2021/11/03 06:40:31;;;;;;;18.63;11.02;;;;;;;5.66;72.85;98820.72;5012178;28;20058;-52
2021/11/03 06:42:58;;;;;;;21.70;11.63;;;;;;;5.67;72.89;98816.84;5018863;28;20058;-54
2021/11/03 06:45:26;;;;;;;19.95;12.07;;;;;;;5.72;72.64;98812.28;5023322;28;20066;-52
2021/11/03 06:47:55;;;;;;;18.23;11.60;;;;;;;5.77;72.82;98810.16;5016127;28;20056;-52
2021/11/03 06:50:25;;;;;;;18.92;11.23;;;;;;;5.82;72.65;98811.97;5017446;28;20393;-52
2021/11/03 06:52:53;;;;;;;16.70;11.00;;;;;;;5.77;72.89;98807.41;5034552;28;20057;-53
2021/11/03 06:55:22;;;;;;;22.33;12.80;;;;;;;5.78;72.93;98813.75;5032900;28;20057;-53
2021/11/03 06:57:50;;;;;;;20.52;12.20;;;;;;;5.87;72.94;98820.09;5035163;28;20400;-54
2021/11/03 07:00:21;;;;;;;15.38;10.00;;;;;;;5.86;72.97;98824.03;5034028;28;20054;-52
2021/11/03 07:02:48;;;;;;;14.68;9.30;;;;;;;5.89;72.45;98829.69;5033436;28;20058;-52
2021/11/03 07:05:17;;;;;;;16.85;10.38;;;;;;;5.96;72.54;98817.38;5030455;28;20046;-52
2021/11/03 07:07:45;;;;;;;19.10;10.48;;;;;;;5.96;72.32;98817.38;5044333;28;20055;-54
2021/11/03 07:10:20;;;;;;;16.73;10.57;;;;;;;6.03;71.97;98817.72;5046804;28;20132;-54
2021/11/03 07:12:47;;;;;;;15.52;10.90;;;;;;;6.04;71.85;98817.38;5033881;28;20475;-52
2021/11/03 07:15:14;;;;;;;18.00;11.75;;;;;;;6.10;72.53;98816.06;5019414;28;20061;-53
2021/11/03 07:17:42;;;;;;;20.10;11.85;;;;;;;6.10;72.53;98826.31;5027177;28;20053;-53
2021/11/03 07:20:10;;;;;;;21.92;12.90;;;;;;;6.02;72.70;98816.88;5049463;28;20381;-54
2021/11/03 07:22:39;;;;;;;20.05;12.45;;;;;;;6.16;72.84;98818.69;5018908;28;20492;-52
2021/11/03 07:25:07;;;;;;;21.80;13.27;;;;;;;6.18;73.23;98811.69;5027186;28;20404;-52
2021/11/03 07:27:34;;;;;;;20.80;12.68;;;;;;;6.29;72.48;98806.63;5033003;28;20056;-52
2021/11/03 07:30:01;;;;;;;20.35;12.65;;;;;;;6.37;72.95;98805.81;5025949;28;20050;-54
2021/11/03 07:32:29;;;;;;;15.82;11.77;;;;;;;6.46;72.40;98801.06;5024619;28;20057;-52
2021/11/03 07:34:56;;;;;;;18.58;11.57;;;;;;;6.53;72.67;98799.75;5027747;28;20050;-54
2021/11/03 07:37:23;;;;;;;15.82;11.00;;;;;;;6.61;72.02;98804.47;5033087;28;20506;-52
2021/11/03 07:39:52;;;;;;;18.48;11.77;;;;;;;6.57;71.21;98796.00;5017205;28;20054;-53
2021/11/03 07:42:19;;;;;;;18.33;11.90;;;;;;;6.64;71.43;98792.75;5031407;28;20492;-53
2021/11/03 07:44:47;;;;;;;18.88;12.45;;;;;;;6.65;71.41;98805.44;5022164;28;20046;-54
2021/11/03 07:47:14;;;;;;;18.48;11.63;;;;;;;6.70;71.87;98808.03;5015398;28;20079;-52
2021/11/03 07:49:42;;;;;;;17.20;11.77;;;;;;;6.76;71.85;98794.81;5020342;28;21402;-54
2021/11/03 07:52:09;;;;;;;17.50;11.50;;;;;;;6.85;71.94;98787.31;5033693;28;20060;-52
2021/11/03 07:54:36;;;;;;;16.90;11.38;;;;;;;6.92;71.64;98790.38;5033886;28;20053;-52
2021/11/03 07:57:06;;;;;;;17.63;11.60;;;;;;;7.04;71.76;98796.03;5020740;28;20058;-54
2021/11/03 07:59:33;;;;;;;19.98;12.25;;;;;;;7.13;71.55;98795.19;5024872;28;20518;-53
2021/11/03 08:02:00;;;;;;;18.52;11.90;;;;;;;7.22;71.47;98802.28;5030771;28;20061;-52
2021/11/03 08:04:31;;;;;;;17.27;12.15;;;;;;;7.31;71.12;98793.94;5029456;28;20053;-52
2021/11/03 08:06:58;;;;;;;19.17;13.05;;;;;;;7.37;70.58;98795.38;5032233;28;20060;-54
2021/11/03 08:09:26;;;;;;;18.40;12.70;;;;;;;7.43;70.64;98801.53;5032401;28;20061;-54
2021/11/03 08:11:55;;;;;;;17.60;12.10;;;;;;;7.52;70.70;98797.56;5028935;28;20064;-52
2021/11/03 08:14:26;;;;;;;20.40;12.43;;;;;;;7.60;71.21;98790.38;5032909;28;20813;-54
2021/11/03 08:16:57;;;;;;;18.15;11.48;;;;;;;7.66;71.13;98799.28;5029024;28;20053;-54
2021/11/03 08:19:31;;;;;;;16.55;11.40;;;;;;;7.75;71.14;98796.44;5031771;28;20076;-52
2021/11/03 08:21:59;;;;;;;16.90;11.68;;;;;;;7.76;71.06;98811.94;5022733;28;20056;-52
2021/11/03 08:24:27;;;;;;;14.90;11.18;;;;;;;7.83;70.11;98817.75;5032535;28;20057;-54
2021/11/03 08:26:55;;;;;;;16.30;11.35;;;;;;;7.92;70.78;98816.53;5030935;28;20052;-54
2021/11/03 08:29:26;;;;;;;17.60;11.82;;;;;;;8.01;69.75;98818.44;5031920;28;20061;-53
2021/11/03 08:31:56;;;;;;;17.13;12.27;;;;;;;8.04;69.07;98826.06;5029192;28;20518;-54
2021/11/03 08:34:25;;;;;;;17.75;12.23;;;;;;;8.07;68.78;98823.44;5026891;28;20404;-55
2021/11/03 08:36:56;;;;;;;17.02;11.43;;;;;;;8.12;69.32;98822.41;5026350;28;20057;-55
2021/11/03 08:39:24;;;;;;;17.65;11.60;;;;;;;8.16;69.33;98826.13;5033026;28;20053;-52
2021/11/03 08:41:52;;;;;;;16.88;11.65;;;;;;;8.06;68.75;98830.16;5030187;28;20423;-53
2021/11/03 08:44:19;;;;;;;16.77;11.05;;;;;;;8.08;68.56;98827.84;5032187;28;20053;-51
2021/11/03 08:46:48;;;;;;;18.85;11.48;;;;;;;8.16;68.57;98823.34;5030566;28;20056;-54
2021/11/03 08:49:15;;;;;;;15.65;11.30;;;;;;;8.24;68.31;98821.69;5022940;28;20520;-54
2021/11/03 08:51:42;;;;;;;16.75;12.13;;;;;;;8.34;68.91;98818.50;5029320;28;20165;-53
2021/11/03 08:54:10;;;;;;;17.73;12.07;;;;;;;8.29;68.70;98810.34;5026886;28;20056;-52
2021/11/03 08:56:37;;;;;;;17.80;12.00;;;;;;;8.29;68.29;98821.44;5027989;28;20061;-52
2021/11/03 08:59:07;;;;;;;18.42;11.63;;;;;;;8.27;69.12;98815.44;5027500;28;20063;-53
2021/11/03 09:01:35;;;;;;;16.67;11.70;;;;;;;8.32;68.67;98810.50;5023397;28;20058;-55
2021/11/03 09:04:07;;;;;;;18.17;11.98;;;;;;;8.43;68.53;98821.22;5031299;28;20091;-53
2021/11/03 09:06:36;;;;;;;18.05;12.38;;;;;;;8.52;68.94;98819.16;5022077;28;20058;-52
2021/11/03 09:09:03;;;;;;;21.77;13.52;;;;;;;8.62;68.71;98817.91;5030762;28;20053;-52
2021/11/03 09:11:32;;;;;;;23.25;13.52;;;;;;;8.65;69.35;98822.78;5028986;28;20058;-52
2021/11/03 09:13:59;;;;;;;19.40;14.35;;;;;;;8.73;68.45;98803.28;5025082;28;20057;-55
2021/11/03 09:16:28;;;;;;;21.30;14.07;;;;;;;8.77;69.05;98797.03;5029350;28;20045;-54
2021/11/03 09:18:55;;;;;;;19.27;13.77;;;;;;;8.85;68.72;98791.38;5029656;28;20057;-52
2021/11/03 09:21:24;;;;;;;22.92;13.75;;;;;;;8.94;68.90;98792.09;5030047;28;20061;-55
2021/11/03 09:23:52;;;;;;;21.07;14.37;;;;;;;8.98;68.72;98788.63;5026405;28;20434;-54
2021/11/03 09:26:22;;;;;;;22.77;16.45;;;;;;;9.03;68.72;98791.16;5027969;28;20484;-52
2021/11/03 09:28:51;;;;;;;22.10;14.25;;;;;;;9.11;68.64;98790.25;5029049;28;20061;-52
2021/11/03 09:31:18;;;;;;;19.88;13.35;;;;;;;9.23;68.12;98800.56;5027931;28;20053;-54
2021/11/03 09:33:46;;;;;;;16.60;12.48;;;;;;;9.31;68.20;98789.34;5023722;28;20060;-52
2021/11/03 09:36:21;;;;;;;20.67;14.35;;;;;;;9.34;68.27;98796.16;5027945;28;20057;-54
2021/11/03 09:38:52;;;;;;;17.05;12.45;;;;;;;9.41;68.31;98799.19;5028948;28;20054;-53
2021/11/03 09:41:25;;;;;;;20.50;13.85;;;;;;;9.56;67.92;98783.75;5028646;28;20492;-55
2021/11/03 09:43:56;;;;;;;18.13;12.60;;;;;;;9.69;67.45;98788.13;5028852;28;20064;-53
2021/11/03 09:46:27;;;;;;;18.33;13.35;;;;;;;9.81;67.16;98778.19;5029826;28;20064;-53
2021/11/03 09:49:01;;;;;;;18.80;13.07;;;;;;;9.88;67.35;98778.38;5037421;28;20060;-55
2021/11/03 09:51:31;;;;;;;18.08;12.30;;;;;;;9.92;66.93;98784.84;5026986;28;20049;-55
2021/11/03 09:54:02;;;;;;;15.18;11.93;;;;;;;10.04;66.61;98779.25;5020452;28;20057;-52
2021/11/03 09:56:38;;;;;;;14.65;11.35;;;;;;;10.20;66.07;98789.63;5026829;28;20095;-55
2021/11/03 09:59:20;;;;;;;17.25;12.00;;;;;;;10.30;65.54;98783.59;5037531;28;20064;-54
2021/11/03 10:01:52;;;;;;;18.73;12.77;;;;;;;10.44;65.89;98788.78;5030374;28;20498;-54
2021/11/03 10:04:53;;;;;;;18.92;12.57;;;;;;;10.46;65.28;98792.81;5028141;28;20053;-53
2021/11/03 10:07:32;;;;;;;17.17;11.48;;;;;;;10.52;65.55;98788.63;5015893;28;20060;-55
2021/11/03 10:10:09;;;;;;;14.15;10.73;;;;;;;10.67;65.14;98791.78;5027141;28;20069;-54
2021/11/03 10:12:36;;;;;;;15.63;10.35;;;;;;;10.75;65.09;98786.06;5030006;28;20053;-55
2021/11/03 10:15:05;;;;;;;15.02;10.70;;;;;;;10.86;64.87;98786.34;5032610;28;20057;-55
2021/11/03 10:17:33;;;;;;;14.88;11.68;;;;;;;10.91;65.24;98777.69;5035779;28;20399;-52
2021/11/03 10:20:00;;;;;;;14.98;11.23;;;;;;;10.99;64.74;98775.91;5032585;28;20057;-55
2021/11/03 10:22:35;;;;;;;16.73;11.60;;;;;;;11.07;64.41;98780.50;5030388;28;20056;-52
2021/11/03 10:25:20;;;;;;;13.52;10.60;;;;;;;11.12;63.97;98782.22;5031831;28;20049;-52
2021/11/03 10:27:52;;;;;;;15.30;11.00;;;;;;;11.19;63.89;98782.38;5022733;28;20053;-54
2021/11/03 10:30:35;;;;;;;15.40;10.68;;;;;;;11.29;63.66;98778.25;5026691;28;20061;-55
2021/11/03 10:33:17;;;;;;;15.20;10.65;;;;;;;11.23;64.05;98774.91;5033812;28;20049;-53
2021/11/03 10:35:55;;;;;;;14.85;11.20;;;;;;;11.33;64.36;98774.38;5013293;28;20428;-52
2021/11/03 10:38:26;;;;;;;13.88;10.27;;;;;;;11.42;63.49;98773.38;5013652;28;20050;-51
2021/11/03 10:41:01;;;;;;;14.38;10.70;;;;;;;11.46;63.68;98777.06;5019249;28;20056;-53
2021/11/03 10:43:34;;;;;;;14.38;10.20;;;;;;;11.56;63.45;98773.72;5032074;28;20053;-52
2021/11/03 10:46:14;;;;;;;13.55;10.30;;;;;;;11.57;63.25;98772.56;5031924;28;20487;-54
2021/11/03 10:48:56;;;;;;;14.48;9.52;;;;;;;11.47;62.78;98762.75;5034427;28;20423;-53
2021/11/03 10:51:39;;;;;;;14.32;9.23;;;;;;;11.51;62.61;98765.63;5034047;28;20056;-53
2021/11/03 10:54:11;;;;;;;10.88;8.32;;;;;;;11.60;62.89;98774.59;5038116;28;20064;-54
2021/11/03 10:56:51;;;;;;;15.27;10.05;;;;;;;11.67;62.67;98758.03;5018327;28;20504;-56
2021/11/03 10:59:30;;;;;;;10.20;8.00;;;;;;;11.75;62.80;98762.59;5027635;28;20049;-53
2021/11/03 11:02:14;;;;;;;10.38;8.55;;;;;;;11.78;62.65;98758.28;5029402;28;20049;-53
2021/11/03 11:04:43;;;;;;;12.32;8.95;;;;;;;11.73;62.63;98745.41;5061150;28;20060;-55
2021/11/03 11:07:24;;;;;;;13.32;9.73;;;;;;;11.71;63.18;98750.53;5051930;28;20051;-55
2021/11/03 11:09:57;;;;;;;14.07;9.45;;;;;;;11.40;63.85;98748.63;5052637;28;20056;-54
2021/11/03 11:12:32;;;;;;;11.32;9.05;;;;;;;11.57;63.41;98750.25;5054443;28;20052;-53
2021/11/03 11:15:15;;;;;;;11.10;9.70;;;;;;;11.79;63.16;98755.09;5060760;28;20661;-53
2021/11/03 11:17:49;;;;;;;12.80;8.73;;;;;;;11.90;62.69;98757.34;5049013;28;20045;-53
2021/11/03 11:20:24;;;;;;;10.80;8.80;;;;;;;11.94;62.45;98753.47;5045703;28;20056;-54
2021/11/03 11:23:02;;;;;;;10.32;8.25;;;;;;;11.92;62.15;98755.00;5041251;28;20045;-53
2021/11/03 11:25:42;;;;;;;12.27;8.98;;;;;;;11.90;62.70;98751.78;5051350;28;20056;-54
2021/11/03 11:28:25;;;;;;;11.18;9.05;;;;;;;11.74;63.22;98749.03;5040999;28;20045;-54
2021/11/03 11:30:58;;;;;;;10.57;8.65;;;;;;;11.73;62.87;98748.19;5040392;28;20426;-54
2021/11/03 11:33:28;;;;;;;9.50;8.50;;;;;;;11.74;62.49;98747.03;5052276;28;20053;-55
2021/11/03 11:36:09;;;;;;;9.95;8.10;;;;;;;11.79;63.02;98741.16;5051061;28;20048;-56
2021/11/03 11:38:50;;;;;;;8.45;7.35;;;;;;;11.76;63.06;98746.69;5055222;28;20060;-56
2021/11/03 11:41:23;;;;;;;10.38;8.48;;;;;;;11.71;63.33;98739.38;5038332;28;20157;-54
2021/11/03 11:43:57;;;;;;;10.18;8.20;;;;;;;11.67;63.74;98738.50;5053462;28;20052;-54
2021/11/03 11:46:28;;;;;;;9.65;8.15;;;;;;;11.69;63.92;98741.72;5042053;28;20048;-55
2021/11/03 11:48:59;;;;;;;12.20;8.20;;;;;;;11.62;64.89;98741.59;5051709;28;20056;-54
2021/11/03 11:51:30;;;;;;;12.13;7.60;;;;;;;11.65;64.62;98743.63;5046793;28;20063;-56
2021/11/03 11:54:21;;;;;;;11.93;8.27;;;;;;;11.61;65.03;98741.94;5035066;28;20064;-56